De Kooy, Netherlands

3:26 PM CEST on October 19, 2018 (GMT +0200)
De Kooy Navy | | Change Station

Elev 46 ft 52.92 °N, 4.78 °E | Updated 31 minutes ago

Overcast
Overcast
55 °F
Feels Like 55 °F
N
7
Wind Variable Wind from ENE

Today
High -- | Low -- °F
--% Chance of Precip.
Yesterday
High -- | Low -- °F
Precip. -- in
Pressure 30.30 in
Visibility 6.2 miles
Clouds Overcast 25000 ft
Dew Point 45 °F
Humidity 67%
Rainfall 0.00 in
Snow Depth Not available.
8:13 AM 6:36 PM
Waxing Gibbous, 75% visible
METAR EHKD 191255Z AUTO 07006KT 030V110 9999 OVC250 13/07 Q1026 BLU 09007KT CAVOK
Pressure 30.30 in
Visibility 6.2 miles
Clouds Overcast 25000 ft
Dew Point 45 °F
Humidity 67%
Rainfall 0.00 in
Snow Depth Not available.
8:13 AM 6:36 PM
Waxing Gibbous, 75% visible
METAR EHKD 191255Z AUTO 07006KT 030V110 9999 OVC250 13/07 Q1026 BLU 09007KT CAVOK

Get Severe Weather Alerts

Thanks for signing up!

Be on the lookout for a verification email in your inbox.

You'll start receiving the daily forecast at 6 AM.

×

10-Day Weather Forecast

×

Almanac

Astronomy

Oct. 19, 2018 Rise Set
Actual Time
Civil Twilight
Nautical Twilight
Astronomical Twilight
Moon
Length of Visible Light
Length of Day
Tomorrow will be .
, % of the Moon is Illuminated

Today's Extremes

Country Highs Country Lows

Community

WunderPhotos

Category 6

Welcome to Category 6. This is the collective home for Weather Underground's featured writeups by Dr. Jeff Masters (right), Bob Henson (left), Chris Burt, and other regular contributors.

Nearby

Air Quality

  Air Quality AQ Index Pollutant
Not available.

Snow Depth

Station Depth Elevation

Earthquake Activity

City Distance Mag. Time & Date
Minimum magnitude displayed is 2.5.

Coastal Water Temperatures

Place Temperature

Stations

Nearby Weather Stations

Station Location Temp. Windchill Dew Point Humidity Wind Precip. Elev Updated Type